sensor_id;sensor_type;location;lat;lon;timestamp;temperature;humidity
63960;DHT22;50136;51.374;0.096;2023-04-24T00:09:10;8.90;99.90
63960;DHT22;50136;51.374;0.096;2023-04-24T00:19:14;8.90;99.90
63960;DHT22;50136;51.374;0.096;2023-04-24T00:29:16;8.90;99.90
63960;DHT22;50136;51.374;0.096;2023-04-24T00:39:19;8.90;99.90
63960;DHT22;50136;51.374;0.096;2023-04-24T00:49:21;8.90;99.90
63960;DHT22;50136;51.374;0.096;2023-04-24T00:59:25;8.90;99.90
63960;DHT22;50136;51.374;0.096;2023-04-24T01:09:27;8.80;99.90
63960;DHT22;50136;51.374;0.096;2023-04-24T01:19:30;8.80;99.90
63960;DHT22;50136;51.374;0.096;2023-04-24T01:29:34;8.80;99.90
63960;DHT22;50136;51.374;0.096;2023-04-24T01:39:36;8.80;99.90
63960;DHT22;50136;51.374;0.096;2023-04-24T01:49:40;8.80;99.90
63960;DHT22;50136;51.374;0.096;2023-04-24T01:59:42;8.80;99.90
63960;DHT22;50136;51.374;0.096;2023-04-24T02:09:46;8.80;99.90
63960;DHT22;50136;51.374;0.096;2023-04-24T02:19:48;8.70;99.90
63960;DHT22;50136;51.374;0.096;2023-04-24T02:29:51;8.60;99.90
63960;DHT22;50136;51.374;0.096;2023-04-24T02:39:53;8.60;99.90
63960;DHT22;50136;51.374;0.096;2023-04-24T02:49:56;8.50;99.90
63960;DHT22;50136;51.374;0.096;2023-04-24T02:59:58;8.40;99.90
63960;DHT22;50136;51.374;0.096;2023-04-24T03:10:02;8.40;99.90
63960;DHT22;50136;51.374;0.096;2023-04-24T03:20:05;8.40;99.90
63960;DHT22;50136;51.374;0.096;2023-04-24T03:30:09;8.40;99.90
63960;DHT22;50136;51.374;0.096;2023-04-24T03:40:11;8.50;99.90
63960;DHT22;50136;51.374;0.096;2023-04-24T03:50:15;8.50;99.90
63960;DHT22;50136;51.374;0.096;2023-04-24T04:00:17;8.50;99.90
63960;DHT22;50136;51.374;0.096;2023-04-24T04:10:20;8.40;99.90
63960;DHT22;50136;51.374;0.096;2023-04-24T04:20:22;8.40;99.90
63960;DHT22;50136;51.374;0.096;2023-04-24T04:30:26;8.30;99.90
63960;DHT22;50136;51.374;0.096;2023-04-24T04:40:28;8.30;99.90
63960;DHT22;50136;51.374;0.096;2023-04-24T04:50:31;8.20;99.90
63960;DHT22;50136;51.374;0.096;2023-04-24T05:00:33;8.20;99.90
63960;DHT22;50136;51.374;0.096;2023-04-24T05:10:38;8.20;99.90
63960;DHT22;50136;51.374;0.096;2023-04-24T05:20:40;8.10;99.90
63960;DHT22;50136;51.374;0.096;2023-04-24T05:30:43;8.20;99.90
63960;DHT22;50136;51.374;0.096;2023-04-24T05:40:45;8.30;99.90
63960;DHT22;50136;51.374;0.096;2023-04-24T05:50:49;8.30;99.90
63960;DHT22;50136;51.374;0.096;2023-04-24T06:00:51;8.30;99.90
63960;DHT22;50136;51.374;0.096;2023-04-24T06:10:54;8.50;99.90
63960;DHT22;50136;51.374;0.096;2023-04-24T06:20:56;8.60;99.90
63960;DHT22;50136;51.374;0.096;2023-04-24T06:30:59;8.80;99.90
63960;DHT22;50136;51.374;0.096;2023-04-24T06:41:01;8.80;99.90
63960;DHT22;50136;51.374;0.096;2023-04-24T06:51:04;9.20;99.90
63960;DHT22;50136;51.374;0.096;2023-04-24T07:01:06;9.00;99.90
63960;DHT22;50136;51.374;0.096;2023-04-24T07:11:10;9.00;99.90
63960;DHT22;50136;51.374;0.096;2023-04-24T07:21:12;9.30;99.90
63960;DHT22;50136;51.374;0.096;2023-04-24T07:31:15;9.30;99.90
63960;DHT22;50136;51.374;0.096;2023-04-24T07:41:17;9.20;99.90
63960;DHT22;50136;51.374;0.096;2023-04-24T07:51:21;9.40;99.90
63960;DHT22;50136;51.374;0.096;2023-04-24T08:01:22;9.40;99.90
63960;DHT22;50136;51.374;0.096;2023-04-24T08:11:26;9.80;99.90
63960;DHT22;50136;51.374;0.096;2023-04-24T08:21:28;10.40;99.90
63960;DHT22;50136;51.374;0.096;2023-04-24T08:31:31;10.50;99.90
63960;DHT22;50136;51.374;0.096;2023-04-24T08:41:34;12.20;99.90
63960;DHT22;50136;51.374;0.096;2023-04-24T08:51:39;14.40;99.90
63960;DHT22;50136;51.374;0.096;2023-04-24T09:01:41;14.40;99.90
63960;DHT22;50136;51.374;0.096;2023-04-24T09:11:46;15.50;99.90
63960;DHT22;50136;51.374;0.096;2023-04-24T09:21:48;15.90;99.90
63960;DHT22;50136;51.374;0.096;2023-04-24T09:31:52;15.30;99.90
63960;DHT22;50136;51.374;0.096;2023-04-24T09:41:55;15.50;99.90
63960;DHT22;50136;51.374;0.096;2023-04-24T09:52:04;14.30;99.90
63960;DHT22;50136;51.374;0.096;2023-04-24T10:02:17;16.50;99.90
63960;DHT22;50136;51.374;0.096;2023-04-24T10:12:21;15.90;99.90
63960;DHT22;50136;51.374;0.096;2023-04-24T10:22:23;14.60;99.90
63960;DHT22;50136;51.374;0.096;2023-04-24T10:32:27;13.60;99.90
63960;DHT22;50136;51.374;0.096;2023-04-24T10:42:29;13.00;99.90
63960;DHT22;50136;51.374;0.096;2023-04-24T10:52:45;13.10;99.90
63960;DHT22;50136;51.374;0.096;2023-04-24T11:02:48;12.90;99.90
63960;DHT22;50136;51.374;0.096;2023-04-24T11:12:52;12.70;99.90
63960;DHT22;50136;51.374;0.096;2023-04-24T11:22:55;12.80;99.90
63960;DHT22;50136;51.374;0.096;2023-04-24T11:33:02;12.60;99.90
63960;DHT22;50136;51.374;0.096;2023-04-24T11:43:04;12.80;99.90
63960;DHT22;50136;51.374;0.096;2023-04-24T11:53:10;13.30;99.90
63960;DHT22;50136;51.374;0.096;2023-04-24T12:03:12;13.40;99.90
63960;DHT22;50136;51.374;0.096;2023-04-24T12:13:16;13.30;99.90
63960;DHT22;50136;51.374;0.096;2023-04-24T12:23:33;13.30;99.90
63960;DHT22;50136;51.374;0.096;2023-04-24T12:33:36;13.50;99.90
63960;DHT22;50136;51.374;0.096;2023-04-24T12:43:50;14.10;99.90
63960;DHT22;50136;51.374;0.096;2023-04-24T12:53:54;15.10;99.90
63960;DHT22;50136;51.374;0.096;2023-04-24T13:03:57;14.70;99.90
63960;DHT22;50136;51.374;0.096;2023-04-24T13:14:02;13.80;99.90
63960;DHT22;50136;51.374;0.096;2023-04-24T13:24:04;14.00;99.90
63960;DHT22;50136;51.374;0.096;2023-04-24T13:34:07;13.70;99.90
63960;DHT22;50136;51.374;0.096;2023-04-24T13:44:09;14.20;99.90
63960;DHT22;50136;51.374;0.096;2023-04-24T13:54:13;13.90;99.90
63960;DHT22;50136;51.374;0.096;2023-04-24T14:04:15;13.70;99.90
63960;DHT22;50136;51.374;0.096;2023-04-24T14:14:18;14.00;99.90
63960;DHT22;50136;51.374;0.096;2023-04-24T14:24:20;14.20;99.90
63960;DHT22;50136;51.374;0.096;2023-04-24T14:34:24;14.00;99.90
63960;DHT22;50136;51.374;0.096;2023-04-24T14:44:26;13.90;99.90
63960;DHT22;50136;51.374;0.096;2023-04-24T14:54:29;13.80;99.90
63960;DHT22;50136;51.374;0.096;2023-04-24T15:04:31;13.90;99.90
63960;DHT22;50136;51.374;0.096;2023-04-24T15:14:35;13.60;99.90
63960;DHT22;50136;51.374;0.096;2023-04-24T15:24:37;13.00;99.90
63960;DHT22;50136;51.374;0.096;2023-04-24T15:34:40;12.50;99.90
63960;DHT22;50136;51.374;0.096;2023-04-24T15:44:42;11.10;99.90
63960;DHT22;50136;51.374;0.096;2023-04-24T15:54:48;9.90;99.90
63960;DHT22;50136;51.374;0.096;2023-04-24T16:04:50;9.40;99.90
63960;DHT22;50136;51.374;0.096;2023-04-24T16:14:56;9.20;99.90
63960;DHT22;50136;51.374;0.096;2023-04-24T16:24:58;9.20;99.90
63960;DHT22;50136;51.374;0.096;2023-04-24T16:35:02;9.00;99.90
63960;DHT22;50136;51.374;0.096;2023-04-24T16:45:05;8.90;99.90
63960;DHT22;50136;51.374;0.096;2023-04-24T16:55:09;8.90;99.90
63960;DHT22;50136;51.374;0.096;2023-04-24T17:05:11;9.00;99.90
63960;DHT22;50136;51.374;0.096;2023-04-24T17:15:15;8.90;99.90
63960;DHT22;50136;51.374;0.096;2023-04-24T17:25:17;9.00;99.90
63960;DHT22;50136;51.374;0.096;2023-04-24T17:35:20;9.00;99.90
63960;DHT22;50136;51.374;0.096;2023-04-24T17:45:23;8.90;99.90
63960;DHT22;50136;51.374;0.096;2023-04-24T17:55:27;8.50;99.90
63960;DHT22;50136;51.374;0.096;2023-04-24T18:05:33;8.50;99.90
63960;DHT22;50136;51.374;0.096;2023-04-24T18:15:36;8.50;99.90
63960;DHT22;50136;51.374;0.096;2023-04-24T18:25:38;8.40;99.90
63960;DHT22;50136;51.374;0.096;2023-04-24T18:35:42;8.40;99.90
63960;DHT22;50136;51.374;0.096;2023-04-24T18:45:44;8.40;99.90
63960;DHT22;50136;51.374;0.096;2023-04-24T18:55:48;8.50;99.90
63960;DHT22;50136;51.374;0.096;2023-04-24T19:05:50;8.30;99.90
63960;DHT22;50136;51.374;0.096;2023-04-24T19:15:53;8.00;99.90
63960;DHT22;50136;51.374;0.096;2023-04-24T19:25:55;7.60;99.90
63960;DHT22;50136;51.374;0.096;2023-04-24T19:35:59;7.50;99.90
63960;DHT22;50136;51.374;0.096;2023-04-24T19:46:01;7.40;99.90
63960;DHT22;50136;51.374;0.096;2023-04-24T19:56:04;7.30;99.90
63960;DHT22;50136;51.374;0.096;2023-04-24T20:06:06;7.20;99.90
63960;DHT22;50136;51.374;0.096;2023-04-24T20:16:10;7.20;99.90
63960;DHT22;50136;51.374;0.096;2023-04-24T20:26:12;7.30;99.90
63960;DHT22;50136;51.374;0.096;2023-04-24T20:36:16;7.30;99.90
63960;DHT22;50136;51.374;0.096;2023-04-24T20:46:17;7.20;99.90
63960;DHT22;50136;51.374;0.096;2023-04-24T20:56:24;7.20;99.90
63960;DHT22;50136;51.374;0.096;2023-04-24T21:06:26;7.30;99.90
63960;DHT22;50136;51.374;0.096;2023-04-24T21:16:29;7.20;99.90
63960;DHT22;50136;51.374;0.096;2023-04-24T21:26:31;7.10;99.90
63960;DHT22;50136;51.374;0.096;2023-04-24T21:36:34;7.00;99.90
63960;DHT22;50136;51.374;0.096;2023-04-24T21:46:36;7.00;99.90
63960;DHT22;50136;51.374;0.096;2023-04-24T21:56:40;7.10;99.90
63960;DHT22;50136;51.374;0.096;2023-04-24T22:06:42;7.20;99.90
63960;DHT22;50136;51.374;0.096;2023-04-24T22:16:45;7.00;99.90
63960;DHT22;50136;51.374;0.096;2023-04-24T22:26:47;6.80;99.90
63960;DHT22;50136;51.374;0.096;2023-04-24T22:36:51;7.00;99.90
63960;DHT22;50136;51.374;0.096;2023-04-24T22:46:53;7.00;99.90
63960;DHT22;50136;51.374;0.096;2023-04-24T22:56:56;7.00;99.90
63960;DHT22;50136;51.374;0.096;2023-04-24T23:06:58;6.90;99.90
63960;DHT22;50136;51.374;0.096;2023-04-24T23:17:01;6.80;99.90
63960;DHT22;50136;51.374;0.096;2023-04-24T23:27:03;6.70;99.90
63960;DHT22;50136;51.374;0.096;2023-04-24T23:37:07;6.60;99.90
63960;DHT22;50136;51.374;0.096;2023-04-24T23:47:09;6.60;99.90
63960;DHT22;50136;51.374;0.096;2023-04-24T23:57:12;6.60;99.90
